TKJ2BM EDDS-LTFJ
Flight info
| Callsign | TKJ2BM |
|---|---|
| Flight time | 2h 24m |
| Altitude | 35000 |
| Route | ABTAL4B/25 ABTAL L173 RIXED Y161 MAH L173 EBEDA L603 LATLO DCT OBEDI DCT INGID DCT GOTAR DCT MAVIR DCT OVDOT DCT TIMUR L606 ADORU UM19 IBODU |
| Aircraft | A320/M-SDE3FGHIRWY/LB1 |
Departure
| Time | 2026-02-19 12:17 |
|---|---|
| Airport | Stuttgart Airport (EDDS) |
Arrival
| Time | 2026-02-19 14:42 |
|---|---|
| Airport | Istanbul Sabiha Gökçen International Airport (LTFJ) |
| Time | Latitude | Longitude | Altitude | Speed | Heading |
|---|---|---|---|---|---|
| 2026-02-19 11:19 | 48.68982 | 9.19839 | 1257 ft | 0 kts | 343° |
| 2026-02-19 12:03 | 48.68980 | 9.19840 | 1257 ft | 1 kts | 343° |
| 2026-02-19 12:03 | 48.68963 | 9.19848 | 1266 ft | 3 kts | 343° |
| 2026-02-19 12:03 | 48.68949 | 9.19854 | 1259 ft | 2 kts | 342° |
| 2026-02-19 12:03 | 48.68933 | 9.19865 | 1264 ft | 3 kts | 308° |
| 2026-02-19 12:04 | 48.68927 | 9.19888 | 1261 ft | 3 kts | 253° |
| 2026-02-19 12:04 | 48.68940 | 9.19927 | 1259 ft | 1 kts | 236° |
| 2026-02-19 12:04 | 48.68941 | 9.19929 | 1259 ft | 0 kts | 236° |
| 2026-02-19 12:07 | 48.68940 | 9.19928 | 1257 ft | 1 kts | 235° |
| 2026-02-19 12:07 | 48.68933 | 9.19914 | 1257 ft | 3 kts | 232° |
| 2026-02-19 12:08 | 48.68917 | 9.19883 | 1266 ft | 5 kts | 232° |
| 2026-02-19 12:08 | 48.68861 | 9.19885 | 1259 ft | 5 kts | 160° |
| 2026-02-19 12:08 | 48.68833 | 9.19900 | 1261 ft | 5 kts | 160° |
| 2026-02-19 12:09 | 48.68818 | 9.19952 | 1257 ft | 7 kts | 86° |
| 2026-02-19 12:09 | 48.68839 | 9.20033 | 1263 ft | 10 kts | 72° |
| 2026-02-19 12:09 | 48.68861 | 9.20150 | 1260 ft | 13 kts | 73° |
| 2026-02-19 12:09 | 48.68890 | 9.20306 | 1266 ft | 17 kts | 75° |
| 2026-02-19 12:10 | 48.68929 | 9.20509 | 1259 ft | 23 kts | 73° |
| 2026-02-19 12:10 | 48.68980 | 9.20774 | 1261 ft | 28 kts | 73° |
| 2026-02-19 12:10 | 48.69038 | 9.21081 | 1262 ft | 32 kts | 74° |
| 2026-02-19 12:10 | 48.69102 | 9.21423 | 1260 ft | 35 kts | 74° |
| 2026-02-19 12:11 | 48.69166 | 9.21761 | 1262 ft | 26 kts | 74° |
| 2026-02-19 12:11 | 48.69212 | 9.22006 | 1262 ft | 23 kts | 73° |
| 2026-02-19 12:11 | 48.69253 | 9.22220 | 1265 ft | 20 kts | 74° |
| 2026-02-19 12:11 | 48.69290 | 9.22414 | 1260 ft | 19 kts | 74° |
| 2026-02-19 12:12 | 48.69324 | 9.22596 | 1265 ft | 17 kts | 74° |
| 2026-02-19 12:12 | 48.69383 | 9.22903 | 1260 ft | 11 kts | 75° |
| 2026-02-19 12:12 | 48.69403 | 9.23015 | 1259 ft | 11 kts | 75° |
| 2026-02-19 12:13 | 48.69424 | 9.23120 | 1266 ft | 11 kts | 72° |
| 2026-02-19 12:13 | 48.69447 | 9.23243 | 1257 ft | 13 kts | 75° |
| 2026-02-19 12:13 | 48.69474 | 9.23382 | 1261 ft | 15 kts | 73° |
| 2026-02-19 12:13 | 48.69503 | 9.23540 | 1261 ft | 16 kts | 75° |
| 2026-02-19 12:14 | 48.69521 | 9.23648 | 1257 ft | 4 kts | 85° |
| 2026-02-19 12:14 | 48.69516 | 9.23677 | 1257 ft | 2 kts | 113° |
| 2026-02-19 12:14 | 48.69502 | 9.23711 | 1259 ft | 7 kts | 128° |
| 2026-02-19 12:14 | 48.69453 | 9.23749 | 1257 ft | 8 kts | 173° |
| 2026-02-19 12:15 | 48.69395 | 9.23714 | 1263 ft | 12 kts | 223° |
| 2026-02-19 12:15 | 48.69323 | 9.23611 | 1262 ft | 14 kts | 225° |
| 2026-02-19 12:15 | 48.69256 | 9.23533 | 1263 ft | 8 kts | 205° |
| 2026-02-19 12:15 | 48.69235 | 9.23499 | 1262 ft | 2 kts | 249° |
| 2026-02-19 12:16 | 48.69233 | 9.23491 | 1261 ft | 0 kts | 253° |
| 2026-02-19 12:16 | 48.69230 | 9.23476 | 1258 ft | 14 kts | 254° |
| 2026-02-19 12:16 | 48.69127 | 9.22937 | 1262 ft | 91 kts | 254° |
| 2026-02-19 12:17 | 48.68895 | 9.21705 | 1258 ft | 147 kts | 254° |
| 2026-02-19 12:17 | 48.68600 | 9.20136 | 1739 ft | 157 kts | 253° |
| 2026-02-19 12:17 | 48.68291 | 9.18561 | 2562 ft | 155 kts | 251° |
| 2026-02-19 12:17 | 48.67989 | 9.16991 | 3254 ft | 159 kts | 252° |
| 2026-02-19 12:18 | 48.67660 | 9.15299 | 3588 ft | 175 kts | 252° |
| 2026-02-19 12:18 | 48.67292 | 9.13424 | 3749 ft | 198 kts | 252° |
| 2026-02-19 12:18 | 48.66859 | 9.11308 | 3999 ft | 223 kts | 248° |
| 2026-02-19 12:18 | 48.65874 | 9.09480 | 4640 ft | 233 kts | 211° |
| 2026-02-19 12:19 | 48.64272 | 9.08999 | 5391 ft | 245 kts | 173° |
| 2026-02-19 12:19 | 48.62688 | 9.10042 | 6160 ft | 254 kts | 148° |
| 2026-02-19 12:19 | 48.61500 | 9.12033 | 6911 ft | 263 kts | 115° |
| 2026-02-19 12:19 | 48.61194 | 9.14797 | 7477 ft | 280 kts | 85° |
| 2026-02-19 12:20 | 48.61461 | 9.17779 | 8094 ft | 290 kts | 83° |
| 2026-02-19 12:20 | 48.61821 | 9.23933 | 9707 ft | 297 kts | 86° |
| 2026-02-19 12:20 | 48.62219 | 9.27018 | 10419 ft | 301 kts | 72° |
| 2026-02-19 12:21 | 48.62996 | 9.30013 | 10866 ft | 316 kts | 68° |
| 2026-02-19 12:21 | 48.63882 | 9.33192 | 11020 ft | 339 kts | 67° |
| 2026-02-19 12:21 | 48.64835 | 9.36556 | 11305 ft | 354 kts | 67° |
| 2026-02-19 12:21 | 48.65808 | 9.40000 | 11913 ft | 359 kts | 69° |
| 2026-02-19 12:22 | 48.66386 | 9.43679 | 12562 ft | 361 kts | 85° |
| 2026-02-19 12:22 | 48.66641 | 9.47477 | 13246 ft | 363 kts | 85° |
| 2026-02-19 12:22 | 48.66888 | 9.51297 | 13900 ft | 365 kts | 86° |
| 2026-02-19 12:22 | 48.67130 | 9.55126 | 14522 ft | 366 kts | 86° |
| 2026-02-19 12:23 | 48.67370 | 9.58958 | 15131 ft | 367 kts | 86° |
| 2026-02-19 12:23 | 48.67613 | 9.62815 | 15724 ft | 369 kts | 86° |
| 2026-02-19 12:23 | 48.67858 | 9.66685 | 16323 ft | 371 kts | 86° |
| 2026-02-19 12:23 | 48.68104 | 9.70528 | 16922 ft | 372 kts | 86° |
| 2026-02-19 12:24 | 48.68354 | 9.74441 | 17529 ft | 374 kts | 86° |
| 2026-02-19 12:24 | 48.68858 | 9.82339 | 18613 ft | 380 kts | 87° |
| 2026-02-19 12:24 | 48.69107 | 9.86334 | 19097 ft | 383 kts | 87° |
| 2026-02-19 12:25 | 48.69356 | 9.90365 | 19581 ft | 387 kts | 87° |
| 2026-02-19 12:25 | 48.69605 | 9.94439 | 20062 ft | 390 kts | 88° |
| 2026-02-19 12:25 | 48.69853 | 9.98544 | 20532 ft | 394 kts | 88° |
| 2026-02-19 12:25 | 48.70100 | 10.02691 | 20985 ft | 397 kts | 88° |
| 2026-02-19 12:26 | 48.70345 | 10.06873 | 21426 ft | 401 kts | 88° |
| 2026-02-19 12:26 | 48.70593 | 10.11094 | 21865 ft | 404 kts | 88° |
| 2026-02-19 12:26 | 48.70846 | 10.15349 | 22278 ft | 408 kts | 88° |
| 2026-02-19 12:26 | 48.71101 | 10.19651 | 22696 ft | 411 kts | 88° |
| 2026-02-19 12:27 | 48.71355 | 10.23976 | 23107 ft | 414 kts | 88° |
| 2026-02-19 12:27 | 48.71608 | 10.28346 | 23487 ft | 418 kts | 88° |
| 2026-02-19 12:27 | 48.71870 | 10.32742 | 23857 ft | 420 kts | 88° |
| 2026-02-19 12:27 | 48.72134 | 10.37155 | 24213 ft | 422 kts | 88° |
| 2026-02-19 12:28 | 48.72388 | 10.41602 | 24580 ft | 424 kts | 89° |
| 2026-02-19 12:28 | 48.72618 | 10.50541 | 25282 ft | 424 kts | 99° |
| 2026-02-19 12:28 | 48.72083 | 10.54915 | 25626 ft | 421 kts | 109° |
| 2026-02-19 12:29 | 48.71064 | 10.59046 | 25970 ft | 419 kts | 119° |
| 2026-02-19 12:29 | 48.69597 | 10.62837 | 26324 ft | 416 kts | 129° |
| 2026-02-19 12:29 | 48.67738 | 10.66174 | 26687 ft | 415 kts | 136° |
| 2026-02-19 12:29 | 48.65735 | 10.69349 | 27051 ft | 417 kts | 136° |
| 2026-02-19 12:30 | 48.63733 | 10.72523 | 27417 ft | 419 kts | 136° |
| 2026-02-19 12:30 | 48.61714 | 10.75720 | 27773 ft | 420 kts | 136° |
| 2026-02-19 12:30 | 48.59723 | 10.78867 | 28221 ft | 419 kts | 136° |
| 2026-02-19 12:30 | 48.57713 | 10.82052 | 28732 ft | 418 kts | 136° |
| 2026-02-19 12:31 | 48.55718 | 10.85234 | 29218 ft | 417 kts | 136° |
| 2026-02-19 12:31 | 48.53727 | 10.88423 | 29719 ft | 416 kts | 136° |
| 2026-02-19 12:31 | 48.51742 | 10.91604 | 30153 ft | 415 kts | 136° |
| 2026-02-19 12:31 | 48.49760 | 10.94778 | 30529 ft | 415 kts | 136° |
| 2026-02-19 12:32 | 48.47780 | 10.97937 | 30893 ft | 415 kts | 137° |
| 2026-02-19 12:32 | 48.43773 | 11.04213 | 31627 ft | 416 kts | 137° |
| 2026-02-19 12:32 | 48.41753 | 11.07336 | 31990 ft | 416 kts | 137° |
| 2026-02-19 12:33 | 48.39730 | 11.10461 | 32366 ft | 417 kts | 137° |
| 2026-02-19 12:33 | 48.37706 | 11.13590 | 32730 ft | 417 kts | 137° |
| 2026-02-19 12:33 | 48.35678 | 11.16731 | 33103 ft | 418 kts | 138° |
| 2026-02-19 12:33 | 48.33656 | 11.19865 | 33477 ft | 418 kts | 138° |
| 2026-02-19 12:34 | 48.31632 | 11.23007 | 33809 ft | 419 kts | 138° |
| 2026-02-19 12:34 | 48.29605 | 11.26162 | 34046 ft | 421 kts | 136° |
| 2026-02-19 12:34 | 48.27880 | 11.29762 | 34269 ft | 430 kts | 122° |
| 2026-02-19 12:34 | 48.26487 | 11.33754 | 34462 ft | 433 kts | 121° |
| 2026-02-19 12:35 | 48.25102 | 11.37783 | 34629 ft | 436 kts | 121° |
| 2026-02-19 12:35 | 48.22299 | 11.45998 | 34680 ft | 448 kts | 121° |
| 2026-02-19 12:36 | 48.19434 | 11.54339 | 34680 ft | 451 kts | 122° |
| 2026-02-19 12:36 | 48.15101 | 11.66865 | 34699 ft | 452 kts | 122° |
| 2026-02-19 12:37 | 48.12206 | 11.75203 | 34700 ft | 451 kts | 122° |
| 2026-02-19 12:37 | 48.09300 | 11.83528 | 34704 ft | 452 kts | 122° |
| 2026-02-19 12:38 | 48.06387 | 11.91856 | 34703 ft | 452 kts | 123° |
| 2026-02-19 12:38 | 48.03469 | 12.00166 | 34707 ft | 452 kts | 123° |
| 2026-02-19 12:39 | 48.00544 | 12.08480 | 34711 ft | 452 kts | 123° |
| 2026-02-19 12:39 | 47.97619 | 12.16779 | 34710 ft | 452 kts | 123° |
| 2026-02-19 12:40 | 47.93216 | 12.29216 | 34709 ft | 452 kts | 123° |
| 2026-02-19 12:41 | 47.90267 | 12.37499 | 34714 ft | 452 kts | 123° |
| 2026-02-19 12:41 | 47.87309 | 12.45785 | 34704 ft | 452 kts | 124° |
| 2026-02-19 12:42 | 47.84359 | 12.54004 | 34694 ft | 453 kts | 124° |
| 2026-02-19 12:42 | 47.80978 | 12.61783 | 34683 ft | 442 kts | 137° |
| 2026-02-19 12:43 | 47.76671 | 12.68312 | 34670 ft | 439 kts | 141° |
| 2026-02-19 12:43 | 47.72355 | 12.74754 | 34658 ft | 440 kts | 141° |
| 2026-02-19 12:44 | 47.68040 | 12.81187 | 34660 ft | 440 kts | 141° |
| 2026-02-19 12:44 | 47.61549 | 12.90807 | 34672 ft | 440 kts | 142° |
| 2026-02-19 12:45 | 47.57231 | 12.97178 | 34659 ft | 440 kts | 142° |
| 2026-02-19 12:45 | 47.52888 | 13.03576 | 34647 ft | 440 kts | 142° |
| 2026-02-19 12:46 | 47.48534 | 13.09963 | 34639 ft | 441 kts | 142° |
| 2026-02-19 12:46 | 47.44174 | 13.16343 | 34626 ft | 441 kts | 142° |
| 2026-02-19 12:47 | 47.39811 | 13.22722 | 34621 ft | 441 kts | 142° |
| 2026-02-19 12:47 | 47.36153 | 13.28081 | 34626 ft | 444 kts | 140° |
| 2026-02-19 12:48 | 47.31575 | 13.40262 | 34618 ft | 473 kts | 110° |
| 2026-02-19 12:49 | 47.30023 | 13.49730 | 34621 ft | 475 kts | 110° |
| 2026-02-19 12:49 | 47.28443 | 13.59142 | 34626 ft | 476 kts | 110° |
| 2026-02-19 12:50 | 47.26856 | 13.68697 | 34631 ft | 481 kts | 106° |
| 2026-02-19 12:50 | 47.25893 | 13.78490 | 34634 ft | 485 kts | 104° |
| 2026-02-19 12:51 | 47.24953 | 13.88284 | 34648 ft | 486 kts | 104° |
| 2026-02-19 12:51 | 47.23998 | 13.98143 | 34659 ft | 487 kts | 104° |
| 2026-02-19 12:52 | 47.23031 | 14.08015 | 34657 ft | 487 kts | 104° |
| 2026-02-19 12:52 | 47.21557 | 14.22876 | 34667 ft | 490 kts | 104° |
| 2026-02-19 12:53 | 47.20556 | 14.32793 | 34689 ft | 491 kts | 104° |
| 2026-02-19 12:53 | 47.19554 | 14.42739 | 34695 ft | 491 kts | 104° |
| 2026-02-19 12:54 | 47.18538 | 14.52678 | 34701 ft | 492 kts | 104° |
| 2026-02-19 12:54 | 47.17508 | 14.62631 | 34709 ft | 493 kts | 104° |
| 2026-02-19 12:55 | 47.16468 | 14.72612 | 34710 ft | 494 kts | 104° |
| 2026-02-19 12:55 | 47.15426 | 14.82603 | 34710 ft | 495 kts | 104° |
| 2026-02-19 12:56 | 47.13838 | 14.97611 | 34712 ft | 496 kts | 104° |
| 2026-02-19 12:57 | 47.12762 | 15.07619 | 34720 ft | 496 kts | 104° |
| 2026-02-19 12:57 | 47.11676 | 15.17643 | 34742 ft | 497 kts | 104° |
| 2026-02-19 12:58 | 47.10584 | 15.27650 | 34745 ft | 497 kts | 105° |
| 2026-02-19 12:58 | 47.09483 | 15.37666 | 34748 ft | 497 kts | 105° |
| 2026-02-19 12:59 | 47.08376 | 15.47681 | 34749 ft | 497 kts | 105° |
| 2026-02-19 12:59 | 47.07255 | 15.57699 | 34752 ft | 497 kts | 105° |
| 2026-02-19 13:00 | 47.06125 | 15.67715 | 34762 ft | 497 kts | 105° |
| 2026-02-19 13:00 | 47.04411 | 15.82722 | 34761 ft | 497 kts | 105° |
| 2026-02-19 13:01 | 47.03271 | 15.92663 | 34768 ft | 498 kts | 105° |
| 2026-02-19 13:01 | 47.02117 | 16.02676 | 34767 ft | 498 kts | 105° |
| 2026-02-19 13:02 | 47.00942 | 16.12690 | 34778 ft | 499 kts | 105° |
| 2026-02-19 13:02 | 46.99750 | 16.22714 | 34780 ft | 499 kts | 106° |
| 2026-02-19 13:03 | 46.98374 | 16.32661 | 34781 ft | 498 kts | 108° |
| 2026-02-19 13:03 | 46.96824 | 16.42545 | 34781 ft | 498 kts | 109° |
| 2026-02-19 13:04 | 46.94501 | 16.57385 | 34774 ft | 500 kts | 108° |
| 2026-02-19 13:05 | 46.92990 | 16.67335 | 34778 ft | 501 kts | 108° |
| 2026-02-19 13:05 | 46.91475 | 16.77281 | 34781 ft | 502 kts | 108° |
| 2026-02-19 13:06 | 46.89941 | 16.87242 | 34786 ft | 502 kts | 108° |
| 2026-02-19 13:06 | 46.88389 | 16.97199 | 34789 ft | 503 kts | 108° |
| 2026-02-19 13:07 | 46.86821 | 17.07174 | 34792 ft | 503 kts | 108° |
| 2026-02-19 13:07 | 46.85254 | 17.17145 | 34797 ft | 504 kts | 108° |
| 2026-02-19 13:08 | 46.83670 | 17.27121 | 34800 ft | 504 kts | 108° |
| 2026-02-19 13:08 | 46.81264 | 17.42101 | 34798 ft | 505 kts | 108° |
| 2026-02-19 13:09 | 46.79657 | 17.52095 | 34787 ft | 506 kts | 108° |
| 2026-02-19 13:09 | 46.78041 | 17.62094 | 34793 ft | 507 kts | 109° |
| 2026-02-19 13:10 | 46.76407 | 17.72105 | 34794 ft | 508 kts | 109° |
| 2026-02-19 13:10 | 46.74763 | 17.82126 | 34797 ft | 508 kts | 109° |
| 2026-02-19 13:11 | 46.73110 | 17.92158 | 34803 ft | 509 kts | 109° |
| 2026-02-19 13:11 | 46.71443 | 18.02198 | 34799 ft | 510 kts | 109° |
| 2026-02-19 13:12 | 46.68918 | 18.17279 | 34805 ft | 511 kts | 109° |
| 2026-02-19 13:13 | 46.67220 | 18.27342 | 34803 ft | 512 kts | 109° |
| 2026-02-19 13:13 | 46.65513 | 18.37411 | 34799 ft | 513 kts | 109° |
| 2026-02-19 13:14 | 46.63802 | 18.47511 | 34799 ft | 514 kts | 109° |
| 2026-02-19 13:14 | 46.62072 | 18.57616 | 34798 ft | 514 kts | 109° |
| 2026-02-19 13:15 | 46.60323 | 18.67712 | 34800 ft | 515 kts | 109° |
| 2026-02-19 13:15 | 46.58583 | 18.77762 | 34803 ft | 517 kts | 109° |
| 2026-02-19 13:16 | 46.56821 | 18.87910 | 34809 ft | 517 kts | 109° |
| 2026-02-19 13:16 | 46.54148 | 19.03104 | 34815 ft | 518 kts | 109° |
| 2026-02-19 13:17 | 46.52362 | 19.13235 | 34818 ft | 518 kts | 109° |
| 2026-02-19 13:17 | 46.50558 | 19.23357 | 34820 ft | 518 kts | 109° |
| 2026-02-19 13:18 | 46.48749 | 19.33477 | 34817 ft | 517 kts | 109° |
| 2026-02-19 13:18 | 46.46938 | 19.43588 | 34824 ft | 518 kts | 109° |
| 2026-02-19 13:19 | 46.45108 | 19.53691 | 34831 ft | 518 kts | 109° |
| 2026-02-19 13:19 | 46.43266 | 19.63795 | 34834 ft | 518 kts | 109° |
| 2026-02-19 13:20 | 46.40319 | 19.78851 | 34833 ft | 513 kts | 118° |
| 2026-02-19 13:21 | 46.36912 | 19.87721 | 34829 ft | 497 kts | 135° |
| 2026-02-19 13:21 | 46.32592 | 19.95468 | 34826 ft | 494 kts | 137° |
| 2026-02-19 13:22 | 46.28260 | 20.03181 | 34829 ft | 495 kts | 137° |
| 2026-02-19 13:22 | 46.23946 | 20.10872 | 34832 ft | 496 kts | 137° |
| 2026-02-19 13:23 | 46.19596 | 20.18610 | 34836 ft | 496 kts | 137° |
| 2026-02-19 13:23 | 46.15232 | 20.26327 | 34837 ft | 496 kts | 137° |
| 2026-02-19 13:24 | 46.10859 | 20.34038 | 34839 ft | 497 kts | 137° |
| 2026-02-19 13:25 | 46.02080 | 20.49445 | 34833 ft | 498 kts | 137° |
| 2026-02-19 13:25 | 45.97683 | 20.57138 | 34842 ft | 498 kts | 137° |
| 2026-02-19 13:26 | 45.93271 | 20.64834 | 34848 ft | 499 kts | 137° |
| 2026-02-19 13:26 | 45.88851 | 20.72519 | 34861 ft | 499 kts | 137° |
| 2026-02-19 13:27 | 45.84428 | 20.80200 | 34863 ft | 500 kts | 137° |
| 2026-02-19 13:27 | 45.80714 | 20.86630 | 34870 ft | 500 kts | 137° |
| 2026-02-19 13:28 | 45.76271 | 20.94305 | 34875 ft | 500 kts | 137° |
| 2026-02-19 13:28 | 45.69620 | 21.05745 | 34882 ft | 501 kts | 137° |
| 2026-02-19 13:29 | 45.65154 | 21.13397 | 34882 ft | 501 kts | 137° |
| 2026-02-19 13:29 | 45.60680 | 21.21056 | 34883 ft | 502 kts | 137° |
| 2026-02-19 13:30 | 45.56202 | 21.28702 | 34882 ft | 502 kts | 137° |
| 2026-02-19 13:30 | 45.51710 | 21.36336 | 34877 ft | 502 kts | 137° |
| 2026-02-19 13:31 | 45.47209 | 21.43961 | 34879 ft | 503 kts | 137° |
| 2026-02-19 13:31 | 45.42699 | 21.51579 | 34880 ft | 503 kts | 137° |
| 2026-02-19 13:32 | 45.35922 | 21.63000 | 34887 ft | 504 kts | 137° |
| 2026-02-19 13:33 | 45.31395 | 21.70609 | 34898 ft | 504 kts | 137° |
| 2026-02-19 13:33 | 45.26862 | 21.78206 | 34906 ft | 504 kts | 137° |
| 2026-02-19 13:34 | 45.22318 | 21.85800 | 34917 ft | 505 kts | 137° |
| 2026-02-19 13:34 | 45.17764 | 21.93384 | 34931 ft | 505 kts | 137° |
| 2026-02-19 13:35 | 45.13207 | 22.00946 | 34946 ft | 505 kts | 137° |
| 2026-02-19 13:35 | 45.08638 | 22.08508 | 34965 ft | 505 kts | 137° |
| 2026-02-19 13:36 | 45.04074 | 22.16053 | 34979 ft | 505 kts | 137° |
| 2026-02-19 13:36 | 44.97216 | 22.27365 | 34995 ft | 505 kts | 137° |
| 2026-02-19 13:37 | 44.92633 | 22.34884 | 35001 ft | 505 kts | 137° |
| 2026-02-19 13:37 | 44.88044 | 22.42389 | 35011 ft | 505 kts | 137° |
| 2026-02-19 13:38 | 44.83452 | 22.49888 | 35016 ft | 505 kts | 137° |
| 2026-02-19 13:38 | 44.78862 | 22.57366 | 35023 ft | 505 kts | 137° |
| 2026-02-19 13:39 | 44.74260 | 22.64837 | 35031 ft | 505 kts | 137° |
| 2026-02-19 13:39 | 44.69691 | 22.72245 | 35028 ft | 504 kts | 137° |
| 2026-02-19 13:40 | 44.62783 | 22.83404 | 35026 ft | 504 kts | 137° |
| 2026-02-19 13:41 | 44.58170 | 22.90823 | 35026 ft | 504 kts | 137° |
| 2026-02-19 13:41 | 44.53553 | 22.98230 | 35029 ft | 504 kts | 137° |
| 2026-02-19 13:42 | 44.48852 | 23.05493 | 35028 ft | 502 kts | 139° |
| 2026-02-19 13:42 | 44.44069 | 23.12626 | 35028 ft | 502 kts | 139° |
| 2026-02-19 13:43 | 44.39280 | 23.19768 | 35028 ft | 503 kts | 139° |
| 2026-02-19 13:43 | 44.34520 | 23.26927 | 35024 ft | 503 kts | 139° |
| 2026-02-19 13:44 | 44.29766 | 23.34083 | 35025 ft | 503 kts | 139° |
| 2026-02-19 13:44 | 44.22603 | 23.44825 | 35027 ft | 504 kts | 139° |
| 2026-02-19 13:45 | 44.17817 | 23.51970 | 35024 ft | 504 kts | 139° |
| 2026-02-19 13:45 | 44.13021 | 23.59089 | 35026 ft | 504 kts | 139° |
| 2026-02-19 13:46 | 44.08223 | 23.66208 | 35026 ft | 504 kts | 138° |
| 2026-02-19 13:46 | 44.03426 | 23.73318 | 35024 ft | 504 kts | 139° |
| 2026-02-19 13:47 | 43.98611 | 23.80417 | 35027 ft | 505 kts | 139° |
| 2026-02-19 13:47 | 43.93823 | 23.87459 | 35026 ft | 505 kts | 138° |
| 2026-02-19 13:48 | 43.86586 | 23.98094 | 35031 ft | 505 kts | 138° |
| 2026-02-19 13:49 | 43.81761 | 24.05164 | 35028 ft | 505 kts | 138° |
| 2026-02-19 13:49 | 43.76931 | 24.12222 | 35031 ft | 505 kts | 138° |
| 2026-02-19 13:50 | 43.72096 | 24.19258 | 35033 ft | 505 kts | 139° |
| 2026-02-19 13:50 | 43.67238 | 24.26265 | 35030 ft | 504 kts | 140° |
| 2026-02-19 13:51 | 43.62232 | 24.33004 | 35025 ft | 502 kts | 142° |
| 2026-02-19 13:51 | 43.57144 | 24.39609 | 35030 ft | 502 kts | 142° |
| 2026-02-19 13:52 | 43.52088 | 24.46239 | 35031 ft | 502 kts | 141° |
| 2026-02-19 13:52 | 43.44546 | 24.56262 | 35034 ft | 502 kts | 141° |
| 2026-02-19 13:53 | 43.39518 | 24.62927 | 35032 ft | 502 kts | 141° |
| 2026-02-19 13:53 | 43.34478 | 24.69568 | 35031 ft | 502 kts | 141° |
| 2026-02-19 13:54 | 43.29427 | 24.76195 | 35032 ft | 502 kts | 141° |
| 2026-02-19 13:54 | 43.24408 | 24.82871 | 35044 ft | 502 kts | 141° |
| 2026-02-19 13:55 | 43.19350 | 24.89469 | 35040 ft | 501 kts | 141° |
| 2026-02-19 13:55 | 43.14303 | 24.95970 | 35037 ft | 501 kts | 141° |
| 2026-02-19 13:56 | 43.06711 | 25.05831 | 35036 ft | 502 kts | 141° |
| 2026-02-19 13:57 | 43.01655 | 25.12417 | 35040 ft | 502 kts | 141° |
| 2026-02-19 13:57 | 42.96597 | 25.18976 | 35047 ft | 502 kts | 141° |
| 2026-02-19 13:58 | 42.91519 | 25.25528 | 35052 ft | 502 kts | 141° |
| 2026-02-19 13:58 | 42.86447 | 25.32061 | 35057 ft | 501 kts | 141° |
| 2026-02-19 13:59 | 42.81352 | 25.38601 | 35065 ft | 501 kts | 141° |
| 2026-02-19 13:59 | 42.76275 | 25.45128 | 35070 ft | 501 kts | 141° |
| 2026-02-19 14:00 | 42.71208 | 25.51639 | 35075 ft | 501 kts | 141° |
| 2026-02-19 14:00 | 42.63576 | 25.61366 | 35078 ft | 501 kts | 141° |
| 2026-02-19 14:01 | 42.58486 | 25.67844 | 35086 ft | 501 kts | 141° |
| 2026-02-19 14:01 | 42.53388 | 25.74315 | 35091 ft | 501 kts | 141° |
| 2026-02-19 14:02 | 42.48320 | 25.80726 | 35101 ft | 501 kts | 141° |
| 2026-02-19 14:02 | 42.43219 | 25.87181 | 35106 ft | 501 kts | 141° |
| 2026-02-19 14:03 | 42.38117 | 25.93621 | 35104 ft | 501 kts | 141° |
| 2026-02-19 14:03 | 42.33008 | 26.00031 | 35104 ft | 501 kts | 141° |
| 2026-02-19 14:04 | 42.22790 | 26.12830 | 35107 ft | 501 kts | 141° |
| 2026-02-19 14:05 | 42.17668 | 26.19203 | 35107 ft | 500 kts | 142° |
| 2026-02-19 14:05 | 42.13409 | 26.24484 | 35108 ft | 500 kts | 142° |
| 2026-02-19 14:06 | 42.07413 | 26.31903 | 35109 ft | 501 kts | 142° |
| 2026-02-19 14:06 | 42.02286 | 26.38230 | 35122 ft | 500 kts | 142° |
| 2026-02-19 14:07 | 41.98018 | 26.43495 | 35121 ft | 500 kts | 141° |
| 2026-02-19 14:07 | 41.92889 | 26.49810 | 35129 ft | 500 kts | 141° |
| 2026-02-19 14:08 | 41.85427 | 26.59634 | 35138 ft | 504 kts | 133° |
| 2026-02-19 14:09 | 41.80956 | 26.66877 | 35141 ft | 504 kts | 133° |
| 2026-02-19 14:09 | 41.76480 | 26.74113 | 35142 ft | 504 kts | 133° |
| 2026-02-19 14:10 | 41.72010 | 26.81333 | 35147 ft | 504 kts | 133° |
| 2026-02-19 14:10 | 41.67526 | 26.88562 | 35151 ft | 504 kts | 133° |
| 2026-02-19 14:11 | 41.63039 | 26.95753 | 35154 ft | 504 kts | 133° |
| 2026-02-19 14:11 | 41.58545 | 27.02931 | 35157 ft | 503 kts | 133° |
| 2026-02-19 14:12 | 41.54553 | 27.10615 | 35161 ft | 507 kts | 117° |
| 2026-02-19 14:12 | 41.50232 | 27.23489 | 35164 ft | 507 kts | 115° |
| 2026-02-19 14:13 | 41.47349 | 27.32071 | 35174 ft | 507 kts | 115° |
| 2026-02-19 14:13 | 41.44459 | 27.40636 | 35170 ft | 507 kts | 115° |
| 2026-02-19 14:14 | 41.41566 | 27.49209 | 35173 ft | 506 kts | 115° |
| 2026-02-19 14:14 | 41.38669 | 27.57754 | 35192 ft | 506 kts | 115° |
| 2026-02-19 14:15 | 41.36609 | 27.66680 | 35182 ft | 504 kts | 97° |
| 2026-02-19 14:15 | 41.36483 | 27.75925 | 35188 ft | 498 kts | 80° |
| 2026-02-19 14:16 | 41.37579 | 27.89696 | 35189 ft | 498 kts | 81° |
| 2026-02-19 14:17 | 41.37865 | 27.98922 | 35184 ft | 502 kts | 93° |
| 2026-02-19 14:17 | 41.37225 | 28.08135 | 35126 ft | 504 kts | 93° |
| 2026-02-19 14:17 | 41.36893 | 28.12776 | 34878 ft | 503 kts | 93° |
| 2026-02-19 14:18 | 41.36558 | 28.17414 | 34634 ft | 502 kts | 93° |
| 2026-02-19 14:18 | 41.36224 | 28.22040 | 34103 ft | 504 kts | 93° |
| 2026-02-19 14:18 | 41.35885 | 28.26739 | 32910 ft | 514 kts | 94° |
| 2026-02-19 14:18 | 41.35537 | 28.31482 | 31887 ft | 516 kts | 94° |
| 2026-02-19 14:19 | 41.35186 | 28.36250 | 30853 ft | 518 kts | 94° |
| 2026-02-19 14:19 | 41.34838 | 28.41011 | 30146 ft | 513 kts | 94° |
| 2026-02-19 14:19 | 41.34492 | 28.45705 | 29435 ft | 506 kts | 94° |
| 2026-02-19 14:19 | 41.34151 | 28.50325 | 28761 ft | 498 kts | 95° |
| 2026-02-19 14:20 | 41.33151 | 28.63788 | 26764 ft | 478 kts | 95° |
| 2026-02-19 14:20 | 41.32818 | 28.68162 | 26113 ft | 472 kts | 95° |
| 2026-02-19 14:21 | 41.32479 | 28.72489 | 25476 ft | 466 kts | 95° |
| 2026-02-19 14:21 | 41.32143 | 28.76756 | 24849 ft | 461 kts | 95° |
| 2026-02-19 14:21 | 41.31813 | 28.80989 | 24237 ft | 456 kts | 95° |
| 2026-02-19 14:21 | 41.31812 | 28.80996 | 24239 ft | 456 kts | 95° |
| 2026-02-19 14:22 | 41.31511 | 28.84891 | 23662 ft | 452 kts | 95° |
| 2026-02-19 14:22 | 41.31190 | 28.89028 | 23049 ft | 446 kts | 95° |
| 2026-02-19 14:22 | 41.30874 | 28.93091 | 22527 ft | 438 kts | 95° |
| 2026-02-19 14:22 | 41.30774 | 28.97102 | 22061 ft | 429 kts | 89° |
| 2026-02-19 14:23 | 41.30774 | 29.01043 | 21585 ft | 422 kts | 89° |
| 2026-02-19 14:23 | 41.30770 | 29.04911 | 21130 ft | 415 kts | 89° |
| 2026-02-19 14:23 | 41.30762 | 29.08718 | 20726 ft | 407 kts | 89° |
| 2026-02-19 14:23 | 41.30749 | 29.12405 | 20600 ft | 391 kts | 89° |
| 2026-02-19 14:24 | 41.30734 | 29.15986 | 20312 ft | 382 kts | 89° |
| 2026-02-19 14:24 | 41.30709 | 29.22957 | 19757 ft | 374 kts | 88° |
| 2026-02-19 14:24 | 41.30720 | 29.26411 | 19523 ft | 372 kts | 88° |
| 2026-02-19 14:25 | 41.30747 | 29.29805 | 19217 ft | 371 kts | 87° |
| 2026-02-19 14:25 | 41.30782 | 29.33216 | 18820 ft | 368 kts | 87° |
| 2026-02-19 14:25 | 41.30821 | 29.36607 | 18409 ft | 365 kts | 85° |
| 2026-02-19 14:25 | 41.31195 | 29.39911 | 17982 ft | 358 kts | 70° |
| 2026-02-19 14:26 | 41.32113 | 29.42938 | 17599 ft | 349 kts | 56° |
| 2026-02-19 14:26 | 41.33486 | 29.45544 | 17223 ft | 340 kts | 42° |
| 2026-02-19 14:26 | 41.35211 | 29.47617 | 16849 ft | 330 kts | 29° |
| 2026-02-19 14:26 | 41.37094 | 29.49339 | 16487 ft | 328 kts | 28° |
| 2026-02-19 14:27 | 41.38978 | 29.51055 | 16126 ft | 327 kts | 28° |
| 2026-02-19 14:27 | 41.40847 | 29.52763 | 15756 ft | 326 kts | 28° |
| 2026-02-19 14:27 | 41.42715 | 29.54472 | 15364 ft | 326 kts | 29° |
| 2026-02-19 14:27 | 41.44588 | 29.56187 | 14999 ft | 325 kts | 30° |
| 2026-02-19 14:28 | 41.46245 | 29.58261 | 14617 ft | 334 kts | 52° |
| 2026-02-19 14:28 | 41.46994 | 29.64243 | 14000 ft | 338 kts | 107° |
| 2026-02-19 14:28 | 41.45934 | 29.67010 | 13609 ft | 335 kts | 126° |
| 2026-02-19 14:29 | 41.44608 | 29.69566 | 13211 ft | 334 kts | 127° |
| 2026-02-19 14:29 | 41.43301 | 29.72069 | 12859 ft | 332 kts | 127° |
| 2026-02-19 14:29 | 41.41995 | 29.74584 | 12502 ft | 330 kts | 126° |
| 2026-02-19 14:29 | 41.40688 | 29.77083 | 12156 ft | 328 kts | 126° |
| 2026-02-19 14:30 | 41.39390 | 29.79557 | 11925 ft | 322 kts | 126° |
| 2026-02-19 14:30 | 41.38117 | 29.81960 | 11769 ft | 314 kts | 130° |
| 2026-02-19 14:30 | 41.36525 | 29.83913 | 11511 ft | 311 kts | 152° |
| 2026-02-19 14:30 | 41.34550 | 29.84971 | 11256 ft | 303 kts | 174° |
| 2026-02-19 14:31 | 41.32479 | 29.85113 | 11011 ft | 297 kts | 186° |
| 2026-02-19 14:31 | 41.30417 | 29.85070 | 10762 ft | 296 kts | 185° |
| 2026-02-19 14:31 | 41.28360 | 29.85032 | 10519 ft | 295 kts | 185° |
| 2026-02-19 14:31 | 41.26312 | 29.84995 | 10274 ft | 294 kts | 185° |
| 2026-02-19 14:32 | 41.24274 | 29.84960 | 10022 ft | 293 kts | 185° |
| 2026-02-19 14:32 | 41.20217 | 29.84898 | 9721 ft | 291 kts | 185° |
| 2026-02-19 14:32 | 41.18194 | 29.84867 | 9573 ft | 290 kts | 185° |
| 2026-02-19 14:33 | 41.16180 | 29.84832 | 9449 ft | 290 kts | 185° |
| 2026-02-19 14:33 | 41.14164 | 29.84796 | 9316 ft | 289 kts | 185° |
| 2026-02-19 14:33 | 41.12157 | 29.84761 | 9182 ft | 288 kts | 185° |
| 2026-02-19 14:33 | 41.10156 | 29.84726 | 8826 ft | 288 kts | 185° |
| 2026-02-19 14:34 | 41.08146 | 29.84693 | 8447 ft | 288 kts | 184° |
| 2026-02-19 14:34 | 41.06890 | 29.84656 | 8216 ft | 285 kts | 190° |
| 2026-02-19 14:34 | 41.04964 | 29.83944 | 7775 ft | 278 kts | 213° |
| 2026-02-19 14:34 | 41.03543 | 29.82311 | 7534 ft | 268 kts | 236° |
| 2026-02-19 14:35 | 41.02731 | 29.80131 | 7203 ft | 264 kts | 257° |
| 2026-02-19 14:35 | 41.02626 | 29.77735 | 6866 ft | 262 kts | 279° |
| 2026-02-19 14:35 | 41.03004 | 29.75373 | 6530 ft | 262 kts | 282° |
| 2026-02-19 14:35 | 41.03395 | 29.73061 | 6394 ft | 253 kts | 282° |
| 2026-02-19 14:36 | 41.03697 | 29.70812 | 6261 ft | 244 kts | 271° |
| 2026-02-19 14:36 | 41.02694 | 29.66671 | 5778 ft | 238 kts | 239° |
| 2026-02-19 14:36 | 41.01845 | 29.64814 | 5493 ft | 238 kts | 240° |
| 2026-02-19 14:37 | 41.00992 | 29.62937 | 5206 ft | 237 kts | 239° |
| 2026-02-19 14:37 | 41.00156 | 29.61091 | 4917 ft | 228 kts | 239° |
| 2026-02-19 14:37 | 40.99356 | 29.59321 | 4622 ft | 223 kts | 239° |
| 2026-02-19 14:37 | 40.98561 | 29.57563 | 4330 ft | 221 kts | 239° |
| 2026-02-19 14:38 | 40.97813 | 29.55776 | 4047 ft | 222 kts | 242° |
| 2026-02-19 14:38 | 40.97149 | 29.53937 | 3753 ft | 221 kts | 243° |
| 2026-02-19 14:38 | 40.96493 | 29.52111 | 3566 ft | 219 kts | 243° |
| 2026-02-19 14:38 | 40.95830 | 29.50290 | 3453 ft | 220 kts | 243° |
| 2026-02-19 14:39 | 40.95170 | 29.48484 | 3160 ft | 215 kts | 243° |
| 2026-02-19 14:39 | 40.94539 | 29.46759 | 2853 ft | 209 kts | 243° |
| 2026-02-19 14:39 | 40.93924 | 29.45076 | 2505 ft | 196 kts | 243° |
| 2026-02-19 14:39 | 40.93343 | 29.43492 | 2216 ft | 188 kts | 243° |
| 2026-02-19 14:40 | 40.92790 | 29.41983 | 1925 ft | 174 kts | 243° |
| 2026-02-19 14:40 | 40.91851 | 29.39422 | 1414 ft | 140 kts | 243° |
| 2026-02-19 14:40 | 40.91518 | 29.38517 | 1229 ft | 135 kts | 243° |
| 2026-02-19 14:41 | 40.91112 | 29.37406 | 1013 ft | 134 kts | 244° |
| 2026-02-19 14:41 | 40.90703 | 29.36304 | 799 ft | 133 kts | 244° |
| 2026-02-19 14:41 | 40.90303 | 29.35214 | 582 ft | 131 kts | 243° |
| 2026-02-19 14:41 | 40.89906 | 29.34129 | 391 ft | 131 kts | 244° |
| 2026-02-19 14:42 | 40.89523 | 29.33080 | 304 ft | 116 kts | 244° |
| 2026-02-19 14:42 | 40.89297 | 29.32464 | 301 ft | 40 kts | 244° |
| 2026-02-19 14:42 | 40.89181 | 29.32147 | 305 ft | 35 kts | 244° |
| 2026-02-19 14:42 | 40.89115 | 29.31882 | 308 ft | 21 kts | 270° |
| 2026-02-19 14:43 | 40.89121 | 29.31760 | 309 ft | 6 kts | 274° |
| 2026-02-19 14:43 | 40.89125 | 29.31691 | 307 ft | 9 kts | 274° |
| 2026-02-19 14:43 | 40.89129 | 29.31626 | 307 ft | 7 kts | 275° |
| 2026-02-19 14:43 | 40.89131 | 29.31591 | 307 ft | 5 kts | 275° |
| 2026-02-19 14:44 | 40.89134 | 29.31528 | 307 ft | 11 kts | 272° |
| 2026-02-19 14:44 | 40.89277 | 29.31479 | 307 ft | 13 kts | 12° |
| 2026-02-19 14:44 | 40.89356 | 29.31426 | 309 ft | 15 kts | 334° |
| 2026-02-19 14:45 | 40.89454 | 29.31364 | 308 ft | 16 kts | 335° |
| 2026-02-19 14:45 | 40.89554 | 29.31299 | 313 ft | 16 kts | 333° |
| 2026-02-19 14:45 | 40.89654 | 29.31235 | 314 ft | 14 kts | 334° |
| 2026-02-19 14:45 | 40.89735 | 29.31183 | 318 ft | 13 kts | 334° |
| 2026-02-19 14:46 | 40.89802 | 29.31112 | 317 ft | 11 kts | 331° |
| 2026-02-19 14:46 | 40.89860 | 29.31077 | 320 ft | 5 kts | 339° |
| 2026-02-19 14:46 | 40.89887 | 29.31069 | 319 ft | 8 kts | 359° |
| 2026-02-19 14:46 | 40.90013 | 29.31238 | 320 ft | 28 kts | 42° |
| 2026-02-19 14:47 | 40.90142 | 29.31357 | 320 ft | 14 kts | 33° |
| 2026-02-19 14:47 | 40.90234 | 29.31436 | 321 ft | 17 kts | 30° |
| 2026-02-19 14:47 | 40.90283 | 29.31517 | 321 ft | 18 kts | 69° |
| 2026-02-19 14:47 | 40.90320 | 29.31614 | 321 ft | 12 kts | 64° |
| 2026-02-19 14:48 | 40.90362 | 29.31728 | 321 ft | 15 kts | 63° |
| 2026-02-19 14:48 | 40.90467 | 29.31989 | 321 ft | 14 kts | 32° |
| 2026-02-19 14:48 | 40.90562 | 29.31951 | 321 ft | 15 kts | 334° |
| 2026-02-19 14:49 | 40.90634 | 29.31943 | 321 ft | 10 kts | 51° |
| 2026-02-19 14:49 | 40.90669 | 29.32034 | 321 ft | 12 kts | 64° |
| 2026-02-19 14:49 | 40.90697 | 29.32083 | 321 ft | 4 kts | 13° |
| 2026-02-19 14:49 | 40.90729 | 29.32062 | 321 ft | 7 kts | 333° |
| 2026-02-19 14:50 | 40.90767 | 29.32037 | 321 ft | 3 kts | 334° |
| 2026-02-19 14:50 | 40.90778 | 29.32030 | 321 ft | 1 kts | 334° |
| 2026-02-19 14:50 | 40.90780 | 29.32029 | 321 ft | 0 kts | 334° |